sensor_id;sensor_type;location;lat;lon;timestamp;P1;durP1;ratioP1;P2;durP2;ratioP2
38805;SDS011;25635;51.146;17.162;2023-07-02T00:00:31;10.70;;;5.80;;
38805;SDS011;25635;51.146;17.162;2023-07-02T00:03:17;10.10;;;6.00;;
38805;SDS011;25635;51.146;17.162;2023-07-02T00:05:47;10.00;;;5.80;;
38805;SDS011;25635;51.146;17.162;2023-07-02T00:08:16;9.70;;;5.50;;
38805;SDS011;25635;51.146;17.162;2023-07-02T00:10:43;11.30;;;6.10;;
38805;SDS011;25635;51.146;17.162;2023-07-02T00:13:09;9.40;;;5.80;;
38805;SDS011;25635;51.146;17.162;2023-07-02T00:15:35;9.60;;;5.80;;
38805;SDS011;25635;51.146;17.162;2023-07-02T00:18:00;9.10;;;5.60;;
38805;SDS011;25635;51.146;17.162;2023-07-02T00:20:27;9.20;;;5.20;;
38805;SDS011;25635;51.146;17.162;2023-07-02T00:22:52;12.40;;;6.00;;
38805;SDS011;25635;51.146;17.162;2023-07-02T00:25:20;11.10;;;5.30;;
38805;SDS011;25635;51.146;17.162;2023-07-02T00:27:46;11.20;;;5.80;;
38805;SDS011;25635;51.146;17.162;2023-07-02T00:30:12;9.70;;;6.20;;
38805;SDS011;25635;51.146;17.162;2023-07-02T00:32:38;12.40;;;5.60;;
38805;SDS011;25635;51.146;17.162;2023-07-02T00:35:04;12.50;;;5.70;;
38805;SDS011;25635;51.146;17.162;2023-07-02T00:37:31;9.60;;;5.70;;
38805;SDS011;25635;51.146;17.162;2023-07-02T00:39:57;11.20;;;5.70;;
38805;SDS011;25635;51.146;17.162;2023-07-02T00:42:23;9.20;;;5.20;;
38805;SDS011;25635;51.146;17.162;2023-07-02T00:44:49;10.10;;;5.40;;
38805;SDS011;25635;51.146;17.162;2023-07-02T00:47:18;9.90;;;4.90;;
38805;SDS011;25635;51.146;17.162;2023-07-02T00:49:44;8.80;;;5.30;;
38805;SDS011;25635;51.146;17.162;2023-07-02T00:52:10;8.70;;;4.80;;
38805;SDS011;25635;51.146;17.162;2023-07-02T00:54:37;7.70;;;4.40;;
38805;SDS011;25635;51.146;17.162;2023-07-02T00:57:03;9.50;;;4.60;;
38805;SDS011;25635;51.146;17.162;2023-07-02T00:59:31;9.20;;;4.50;;
38805;SDS011;25635;51.146;17.162;2023-07-02T01:02:01;9.80;;;4.40;;
38805;SDS011;25635;51.146;17.162;2023-07-02T01:04:28;10.10;;;4.20;;
38805;SDS011;25635;51.146;17.162;2023-07-02T01:06:54;6.80;;;3.70;;
38805;SDS011;25635;51.146;17.162;2023-07-02T01:09:25;7.40;;;3.60;;
38805;SDS011;25635;51.146;17.162;2023-07-02T01:11:54;6.70;;;3.20;;
38805;SDS011;25635;51.146;17.162;2023-07-02T01:14:25;7.30;;;3.30;;
38805;SDS011;25635;51.146;17.162;2023-07-02T01:16:53;6.30;;;2.80;;
38805;SDS011;25635;51.146;17.162;2023-07-02T01:22:06;8.10;;;2.70;;
38805;SDS011;25635;51.146;17.162;2023-07-02T01:24:33;5.50;;;2.10;;
38805;SDS011;25635;51.146;17.162;2023-07-02T01:27:00;8.30;;;2.20;;
38805;SDS011;25635;51.146;17.162;2023-07-02T01:29:28;6.40;;;2.00;;
38805;SDS011;25635;51.146;17.162;2023-07-02T01:31:56;7.30;;;2.20;;
38805;SDS011;25635;51.146;17.162;2023-07-02T01:34:22;5.10;;;1.80;;
38805;SDS011;25635;51.146;17.162;2023-07-02T01:36:49;4.90;;;1.70;;
38805;SDS011;25635;51.146;17.162;2023-07-02T01:39:15;6.30;;;2.10;;
38805;SDS011;25635;51.146;17.162;2023-07-02T01:41:43;4.80;;;1.70;;
38805;SDS011;25635;51.146;17.162;2023-07-02T01:44:20;4.80;;;1.30;;
38805;SDS011;25635;51.146;17.162;2023-07-02T01:46:47;3.70;;;1.40;;
38805;SDS011;25635;51.146;17.162;2023-07-02T01:49:23;4.00;;;1.30;;
38805;SDS011;25635;51.146;17.162;2023-07-02T01:51:49;5.30;;;1.10;;
38805;SDS011;25635;51.146;17.162;2023-07-02T01:54:20;6.20;;;1.20;;
38805;SDS011;25635;51.146;17.162;2023-07-02T01:56:47;4.40;;;1.40;;
38805;SDS011;25635;51.146;17.162;2023-07-02T01:59:14;6.00;;;1.30;;
38805;SDS011;25635;51.146;17.162;2023-07-02T02:01:40;3.40;;;1.20;;
38805;SDS011;25635;51.146;17.162;2023-07-02T02:04:07;5.80;;;1.30;;
38805;SDS011;25635;51.146;17.162;2023-07-02T02:06:34;4.90;;;1.20;;
38805;SDS011;25635;51.146;17.162;2023-07-02T02:09:00;4.50;;;1.30;;
38805;SDS011;25635;51.146;17.162;2023-07-02T02:11:26;4.50;;;1.40;;
38805;SDS011;25635;51.146;17.162;2023-07-02T02:13:52;3.10;;;1.20;;
38805;SDS011;25635;51.146;17.162;2023-07-02T02:16:19;3.10;;;1.10;;
38805;SDS011;25635;51.146;17.162;2023-07-02T02:18:45;4.00;;;1.10;;
38805;SDS011;25635;51.146;17.162;2023-07-02T02:21:12;2.70;;;1.10;;
38805;SDS011;25635;51.146;17.162;2023-07-02T02:23:37;4.90;;;1.40;;
38805;SDS011;25635;51.146;17.162;2023-07-02T02:26:03;3.90;;;1.20;;
38805;SDS011;25635;51.146;17.162;2023-07-02T02:28:29;5.80;;;1.30;;
38805;SDS011;25635;51.146;17.162;2023-07-02T02:30:55;5.40;;;1.40;;
38805;SDS011;25635;51.146;17.162;2023-07-02T02:33:21;3.60;;;1.30;;
38805;SDS011;25635;51.146;17.162;2023-07-02T02:35:47;3.90;;;1.30;;
38805;SDS011;25635;51.146;17.162;2023-07-02T02:38:14;3.20;;;0.90;;
38805;SDS011;25635;51.146;17.162;2023-07-02T02:40:40;4.30;;;1.30;;
38805;SDS011;25635;51.146;17.162;2023-07-02T02:43:06;6.10;;;1.30;;
38805;SDS011;25635;51.146;17.162;2023-07-02T02:45:32;5.40;;;1.30;;
38805;SDS011;25635;51.146;17.162;2023-07-02T02:47:58;4.00;;;1.10;;
38805;SDS011;25635;51.146;17.162;2023-07-02T02:50:24;4.50;;;1.10;;
38805;SDS011;25635;51.146;17.162;2023-07-02T02:52:50;5.00;;;1.20;;
38805;SDS011;25635;51.146;17.162;2023-07-02T02:55:16;3.10;;;1.20;;
38805;SDS011;25635;51.146;17.162;2023-07-02T02:57:42;3.80;;;1.20;;
38805;SDS011;25635;51.146;17.162;2023-07-02T03:00:08;3.20;;;1.20;;
38805;SDS011;25635;51.146;17.162;2023-07-02T03:02:35;4.90;;;1.10;;
38805;SDS011;25635;51.146;17.162;2023-07-02T03:05:02;4.10;;;1.10;;
38805;SDS011;25635;51.146;17.162;2023-07-02T03:07:29;3.00;;;0.90;;
38805;SDS011;25635;51.146;17.162;2023-07-02T03:09:55;4.40;;;1.10;;
38805;SDS011;25635;51.146;17.162;2023-07-02T03:12:22;3.70;;;1.10;;
38805;SDS011;25635;51.146;17.162;2023-07-02T03:14:48;4.00;;;1.00;;
38805;SDS011;25635;51.146;17.162;2023-07-02T03:17:19;2.70;;;0.80;;
38805;SDS011;25635;51.146;17.162;2023-07-02T03:19:46;2.90;;;0.90;;
38805;SDS011;25635;51.146;17.162;2023-07-02T03:22:12;2.60;;;0.70;;
38805;SDS011;25635;51.146;17.162;2023-07-02T03:24:38;2.10;;;0.70;;
38805;SDS011;25635;51.146;17.162;2023-07-02T03:27:05;2.30;;;0.60;;
38805;SDS011;25635;51.146;17.162;2023-07-02T03:29:31;3.20;;;0.70;;
38805;SDS011;25635;51.146;17.162;2023-07-02T03:31:59;3.00;;;0.70;;
38805;SDS011;25635;51.146;17.162;2023-07-02T03:34:25;2.30;;;0.80;;
38805;SDS011;25635;51.146;17.162;2023-07-02T03:36:51;4.00;;;0.80;;
38805;SDS011;25635;51.146;17.162;2023-07-02T03:39:17;3.50;;;0.80;;
38805;SDS011;25635;51.146;17.162;2023-07-02T03:41:44;3.00;;;0.70;;
38805;SDS011;25635;51.146;17.162;2023-07-02T03:44:10;3.20;;;0.70;;
38805;SDS011;25635;51.146;17.162;2023-07-02T03:46:36;1.80;;;0.60;;
38805;SDS011;25635;51.146;17.162;2023-07-02T03:49:02;3.10;;;0.60;;
38805;SDS011;25635;51.146;17.162;2023-07-02T03:51:29;3.20;;;0.60;;
38805;SDS011;25635;51.146;17.162;2023-07-02T03:53:56;2.20;;;0.70;;
38805;SDS011;25635;51.146;17.162;2023-07-02T03:56:23;2.70;;;0.90;;
38805;SDS011;25635;51.146;17.162;2023-07-02T03:58:50;2.70;;;0.70;;
38805;SDS011;25635;51.146;17.162;2023-07-02T04:01:16;3.60;;;0.70;;
38805;SDS011;25635;51.146;17.162;2023-07-02T04:03:47;2.90;;;0.60;;
38805;SDS011;25635;51.146;17.162;2023-07-02T04:06:14;3.40;;;0.60;;
38805;SDS011;25635;51.146;17.162;2023-07-02T04:08:41;2.50;;;0.80;;
38805;SDS011;25635;51.146;17.162;2023-07-02T04:11:08;1.80;;;0.50;;
38805;SDS011;25635;51.146;17.162;2023-07-02T04:13:34;2.70;;;0.90;;
38805;SDS011;25635;51.146;17.162;2023-07-02T04:16:00;2.60;;;0.70;;
38805;SDS011;25635;51.146;17.162;2023-07-02T04:18:26;3.40;;;0.90;;
38805;SDS011;25635;51.146;17.162;2023-07-02T04:20:52;5.00;;;1.00;;
38805;SDS011;25635;51.146;17.162;2023-07-02T04:23:18;3.00;;;0.80;;
38805;SDS011;25635;51.146;17.162;2023-07-02T04:25:44;3.10;;;1.20;;
38805;SDS011;25635;51.146;17.162;2023-07-02T04:28:10;3.70;;;0.80;;
38805;SDS011;25635;51.146;17.162;2023-07-02T04:30:36;2.90;;;0.80;;
38805;SDS011;25635;51.146;17.162;2023-07-02T04:33:02;3.10;;;0.80;;
38805;SDS011;25635;51.146;17.162;2023-07-02T04:35:28;3.40;;;1.00;;
38805;SDS011;25635;51.146;17.162;2023-07-02T04:37:54;3.70;;;0.80;;
38805;SDS011;25635;51.146;17.162;2023-07-02T04:40:20;2.90;;;0.80;;
38805;SDS011;25635;51.146;17.162;2023-07-02T04:42:46;2.80;;;0.90;;
38805;SDS011;25635;51.146;17.162;2023-07-02T04:45:13;3.80;;;0.90;;
38805;SDS011;25635;51.146;17.162;2023-07-02T04:47:43;2.00;;;0.70;;
38805;SDS011;25635;51.146;17.162;2023-07-02T04:50:10;2.60;;;0.80;;
38805;SDS011;25635;51.146;17.162;2023-07-02T04:52:37;3.20;;;1.10;;
38805;SDS011;25635;51.146;17.162;2023-07-02T04:55:04;2.80;;;1.00;;
38805;SDS011;25635;51.146;17.162;2023-07-02T04:57:31;4.60;;;1.00;;
38805;SDS011;25635;51.146;17.162;2023-07-02T04:59:57;3.20;;;1.00;;
38805;SDS011;25635;51.146;17.162;2023-07-02T05:02:23;4.70;;;1.10;;
38805;SDS011;25635;51.146;17.162;2023-07-02T05:04:50;4.10;;;1.10;;
38805;SDS011;25635;51.146;17.162;2023-07-02T05:07:16;2.90;;;1.00;;
38805;SDS011;25635;51.146;17.162;2023-07-02T05:09:42;3.50;;;1.10;;
38805;SDS011;25635;51.146;17.162;2023-07-02T05:12:08;3.30;;;0.90;;
38805;SDS011;25635;51.146;17.162;2023-07-02T05:14:35;3.20;;;1.20;;
38805;SDS011;25635;51.146;17.162;2023-07-02T05:17:01;4.50;;;1.50;;
38805;SDS011;25635;51.146;17.162;2023-07-02T05:19:27;3.50;;;1.10;;
38805;SDS011;25635;51.146;17.162;2023-07-02T05:21:53;5.70;;;1.00;;
38805;SDS011;25635;51.146;17.162;2023-07-02T05:24:19;3.50;;;1.40;;
38805;SDS011;25635;51.146;17.162;2023-07-02T05:26:45;3.60;;;1.20;;
38805;SDS011;25635;51.146;17.162;2023-07-02T05:29:12;5.00;;;1.20;;
38805;SDS011;25635;51.146;17.162;2023-07-02T05:31:39;4.20;;;1.20;;
38805;SDS011;25635;51.146;17.162;2023-07-02T05:34:05;2.90;;;1.00;;
38805;SDS011;25635;51.146;17.162;2023-07-02T05:36:31;3.20;;;1.00;;
38805;SDS011;25635;51.146;17.162;2023-07-02T05:38:57;3.70;;;1.10;;
38805;SDS011;25635;51.146;17.162;2023-07-02T05:41:23;3.90;;;1.10;;
38805;SDS011;25635;51.146;17.162;2023-07-02T05:43:49;3.40;;;1.20;;
38805;SDS011;25635;51.146;17.162;2023-07-02T05:46:15;5.30;;;1.20;;
38805;SDS011;25635;51.146;17.162;2023-07-02T05:48:41;3.30;;;1.10;;
38805;SDS011;25635;51.146;17.162;2023-07-02T05:51:08;3.00;;;1.00;;
38805;SDS011;25635;51.146;17.162;2023-07-02T05:53:34;4.00;;;1.10;;
38805;SDS011;25635;51.146;17.162;2023-07-02T05:56:00;3.30;;;1.30;;
38805;SDS011;25635;51.146;17.162;2023-07-02T05:58:26;2.20;;;0.80;;
38805;SDS011;25635;51.146;17.162;2023-07-02T06:00:53;3.10;;;0.80;;
38805;SDS011;25635;51.146;17.162;2023-07-02T06:03:19;3.50;;;1.10;;
38805;SDS011;25635;51.146;17.162;2023-07-02T06:05:49;3.90;;;1.10;;
38805;SDS011;25635;51.146;17.162;2023-07-02T06:08:16;2.20;;;0.90;;
38805;SDS011;25635;51.146;17.162;2023-07-02T06:10:43;3.90;;;1.30;;
38805;SDS011;25635;51.146;17.162;2023-07-02T06:13:12;2.90;;;1.20;;
38805;SDS011;25635;51.146;17.162;2023-07-02T06:15:38;3.60;;;1.10;;
38805;SDS011;25635;51.146;17.162;2023-07-02T06:18:04;4.10;;;1.20;;
38805;SDS011;25635;51.146;17.162;2023-07-02T06:20:30;3.00;;;1.00;;
38805;SDS011;25635;51.146;17.162;2023-07-02T06:22:56;4.90;;;1.20;;
38805;SDS011;25635;51.146;17.162;2023-07-02T06:25:22;3.40;;;1.20;;
38805;SDS011;25635;51.146;17.162;2023-07-02T06:27:48;4.80;;;1.30;;
38805;SDS011;25635;51.146;17.162;2023-07-02T06:30:14;3.00;;;1.20;;
38805;SDS011;25635;51.146;17.162;2023-07-02T06:32:40;4.50;;;1.20;;
38805;SDS011;25635;51.146;17.162;2023-07-02T06:35:06;3.50;;;1.20;;
38805;SDS011;25635;51.146;17.162;2023-07-02T06:37:32;3.30;;;1.10;;
38805;SDS011;25635;51.146;17.162;2023-07-02T06:39:59;3.30;;;1.20;;
38805;SDS011;25635;51.146;17.162;2023-07-02T06:42:25;3.10;;;1.20;;
38805;SDS011;25635;51.146;17.162;2023-07-02T06:44:51;2.80;;;1.00;;
38805;SDS011;25635;51.146;17.162;2023-07-02T06:47:17;2.90;;;1.00;;
38805;SDS011;25635;51.146;17.162;2023-07-02T06:49:43;3.10;;;1.10;;
38805;SDS011;25635;51.146;17.162;2023-07-02T06:52:09;3.00;;;1.00;;
38805;SDS011;25635;51.146;17.162;2023-07-02T06:54:35;3.70;;;0.90;;
38805;SDS011;25635;51.146;17.162;2023-07-02T06:57:01;4.80;;;0.90;;
38805;SDS011;25635;51.146;17.162;2023-07-02T06:59:27;2.90;;;1.00;;
38805;SDS011;25635;51.146;17.162;2023-07-02T07:01:53;3.40;;;1.10;;
38805;SDS011;25635;51.146;17.162;2023-07-02T07:04:19;2.90;;;1.10;;
38805;SDS011;25635;51.146;17.162;2023-07-02T07:06:45;2.90;;;0.90;;
38805;SDS011;25635;51.146;17.162;2023-07-02T07:09:11;2.60;;;1.00;;
38805;SDS011;25635;51.146;17.162;2023-07-02T07:11:37;3.60;;;0.80;;
38805;SDS011;25635;51.146;17.162;2023-07-02T07:14:03;3.10;;;0.90;;
38805;SDS011;25635;51.146;17.162;2023-07-02T07:16:29;2.10;;;0.80;;
38805;SDS011;25635;51.146;17.162;2023-07-02T07:18:55;3.80;;;0.90;;
38805;SDS011;25635;51.146;17.162;2023-07-02T07:21:21;2.90;;;1.30;;
38805;SDS011;25635;51.146;17.162;2023-07-02T07:23:48;2.30;;;1.10;;
38805;SDS011;25635;51.146;17.162;2023-07-02T07:26:14;2.80;;;1.00;;
38805;SDS011;25635;51.146;17.162;2023-07-02T07:28:40;4.50;;;1.20;;
38805;SDS011;25635;51.146;17.162;2023-07-02T07:31:06;2.80;;;0.90;;
38805;SDS011;25635;51.146;17.162;2023-07-02T07:33:32;3.40;;;1.10;;
38805;SDS011;25635;51.146;17.162;2023-07-02T07:35:58;2.90;;;0.80;;
38805;SDS011;25635;51.146;17.162;2023-07-02T07:38:25;3.10;;;0.90;;
38805;SDS011;25635;51.146;17.162;2023-07-02T07:40:51;2.70;;;0.90;;
38805;SDS011;25635;51.146;17.162;2023-07-02T07:43:17;2.80;;;1.10;;
38805;SDS011;25635;51.146;17.162;2023-07-02T07:45:43;3.20;;;1.20;;
38805;SDS011;25635;51.146;17.162;2023-07-02T07:48:09;3.00;;;1.30;;
38805;SDS011;25635;51.146;17.162;2023-07-02T07:50:35;3.30;;;1.20;;
38805;SDS011;25635;51.146;17.162;2023-07-02T07:53:01;3.80;;;1.20;;
38805;SDS011;25635;51.146;17.162;2023-07-02T07:55:27;3.60;;;1.40;;
38805;SDS011;25635;51.146;17.162;2023-07-02T07:57:53;2.70;;;1.00;;
38805;SDS011;25635;51.146;17.162;2023-07-02T08:00:19;2.90;;;1.10;;
38805;SDS011;25635;51.146;17.162;2023-07-02T08:02:46;3.80;;;1.10;;
38805;SDS011;25635;51.146;17.162;2023-07-02T08:05:12;3.50;;;1.20;;
38805;SDS011;25635;51.146;17.162;2023-07-02T08:07:39;4.10;;;1.50;;
38805;SDS011;25635;51.146;17.162;2023-07-02T08:10:08;3.30;;;1.40;;
38805;SDS011;25635;51.146;17.162;2023-07-02T08:12:35;5.40;;;1.80;;
38805;SDS011;25635;51.146;17.162;2023-07-02T08:15:01;3.30;;;1.20;;
38805;SDS011;25635;51.146;17.162;2023-07-02T08:17:28;2.60;;;1.00;;
38805;SDS011;25635;51.146;17.162;2023-07-02T08:19:56;2.70;;;1.00;;
38805;SDS011;25635;51.146;17.162;2023-07-02T08:22:23;3.20;;;1.10;;
38805;SDS011;25635;51.146;17.162;2023-07-02T08:24:49;3.90;;;1.00;;
38805;SDS011;25635;51.146;17.162;2023-07-02T08:27:15;2.30;;;1.00;;
38805;SDS011;25635;51.146;17.162;2023-07-02T08:29:47;2.60;;;0.90;;
38805;SDS011;25635;51.146;17.162;2023-07-02T08:32:14;3.90;;;1.10;;
38805;SDS011;25635;51.146;17.162;2023-07-02T08:34:41;2.70;;;1.00;;
38805;SDS011;25635;51.146;17.162;2023-07-02T08:37:07;3.00;;;1.00;;
38805;SDS011;25635;51.146;17.162;2023-07-02T08:39:33;2.40;;;1.00;;
38805;SDS011;25635;51.146;17.162;2023-07-02T08:41:59;5.00;;;1.30;;
38805;SDS011;25635;51.146;17.162;2023-07-02T08:44:25;3.50;;;1.10;;
38805;SDS011;25635;51.146;17.162;2023-07-02T08:46:52;3.90;;;1.20;;
38805;SDS011;25635;51.146;17.162;2023-07-02T08:49:20;4.00;;;1.10;;
38805;SDS011;25635;51.146;17.162;2023-07-02T08:51:46;3.40;;;1.20;;
38805;SDS011;25635;51.146;17.162;2023-07-02T08:54:13;2.90;;;1.10;;
38805;SDS011;25635;51.146;17.162;2023-07-02T08:56:40;3.00;;;1.20;;
38805;SDS011;25635;51.146;17.162;2023-07-02T08:59:07;5.70;;;1.40;;
38805;SDS011;25635;51.146;17.162;2023-07-02T09:01:44;2.80;;;1.20;;
38805;SDS011;25635;51.146;17.162;2023-07-02T09:04:20;4.10;;;1.20;;
38805;SDS011;25635;51.146;17.162;2023-07-02T09:06:51;4.10;;;1.30;;
38805;SDS011;25635;51.146;17.162;2023-07-02T09:09:29;2.50;;;1.20;;
38805;SDS011;25635;51.146;17.162;2023-07-02T09:11:55;3.50;;;1.50;;
38805;SDS011;25635;51.146;17.162;2023-07-02T09:14:25;2.80;;;1.30;;
38805;SDS011;25635;51.146;17.162;2023-07-02T09:19:29;4.10;;;1.50;;
38805;SDS011;25635;51.146;17.162;2023-07-02T09:21:57;3.70;;;1.30;;
38805;SDS011;25635;51.146;17.162;2023-07-02T09:24:28;3.00;;;1.20;;
38805;SDS011;25635;51.146;17.162;2023-07-02T09:26:56;4.20;;;1.40;;
38805;SDS011;25635;51.146;17.162;2023-07-02T09:29:25;4.00;;;1.30;;
38805;SDS011;25635;51.146;17.162;2023-07-02T09:31:55;2.90;;;1.20;;
38805;SDS011;25635;51.146;17.162;2023-07-02T09:34:27;2.60;;;1.20;;
38805;SDS011;25635;51.146;17.162;2023-07-02T09:37:00;3.50;;;1.30;;
38805;SDS011;25635;51.146;17.162;2023-07-02T09:39:27;3.30;;;1.30;;
38805;SDS011;25635;51.146;17.162;2023-07-02T09:41:55;3.40;;;1.40;;
38805;SDS011;25635;51.146;17.162;2023-07-02T09:44:27;3.10;;;1.30;;
38805;SDS011;25635;51.146;17.162;2023-07-02T09:47:01;3.30;;;1.30;;
38805;SDS011;25635;51.146;17.162;2023-07-02T09:49:32;3.60;;;1.30;;
38805;SDS011;25635;51.146;17.162;2023-07-02T09:52:03;6.00;;;1.50;;
38805;SDS011;25635;51.146;17.162;2023-07-02T09:54:34;3.00;;;1.40;;
38805;SDS011;25635;51.146;17.162;2023-07-02T09:57:00;3.70;;;1.40;;
38805;SDS011;25635;51.146;17.162;2023-07-02T09:59:27;3.30;;;1.30;;
38805;SDS011;25635;51.146;17.162;2023-07-02T10:01:54;3.40;;;1.60;;
38805;SDS011;25635;51.146;17.162;2023-07-02T10:04:21;4.90;;;1.60;;
38805;SDS011;25635;51.146;17.162;2023-07-02T10:06:52;2.90;;;1.30;;
38805;SDS011;25635;51.146;17.162;2023-07-02T10:09:56;3.00;;;1.40;;
38805;SDS011;25635;51.146;17.162;2023-07-02T10:12:18;5.80;;;1.20;;
38805;SDS011;25635;51.146;17.162;2023-07-02T10:14:46;3.30;;;1.50;;
38805;SDS011;25635;51.146;17.162;2023-07-02T10:17:24;4.00;;;1.80;;
38805;SDS011;25635;51.146;17.162;2023-07-02T10:19:53;4.30;;;1.40;;
38805;SDS011;25635;51.146;17.162;2023-07-02T10:22:21;3.80;;;1.30;;
38805;SDS011;25635;51.146;17.162;2023-07-02T10:24:55;2.30;;;0.90;;
38805;SDS011;25635;51.146;17.162;2023-07-02T10:27:35;2.90;;;1.10;;
38805;SDS011;25635;51.146;17.162;2023-07-02T10:30:06;3.30;;;1.30;;
38805;SDS011;25635;51.146;17.162;2023-07-02T10:32:33;2.90;;;1.20;;
38805;SDS011;25635;51.146;17.162;2023-07-02T10:35:01;2.50;;;1.10;;
38805;SDS011;25635;51.146;17.162;2023-07-02T10:37:42;2.60;;;1.10;;
38805;SDS011;25635;51.146;17.162;2023-07-02T10:40:09;4.40;;;1.20;;
38805;SDS011;25635;51.146;17.162;2023-07-02T10:45:16;3.10;;;1.10;;
38805;SDS011;25635;51.146;17.162;2023-07-02T10:47:42;4.50;;;1.30;;
38805;SDS011;25635;51.146;17.162;2023-07-02T10:52:41;2.90;;;1.30;;
38805;SDS011;25635;51.146;17.162;2023-07-02T10:55:07;4.40;;;1.10;;
38805;SDS011;25635;51.146;17.162;2023-07-02T10:57:34;3.70;;;1.20;;
38805;SDS011;25635;51.146;17.162;2023-07-02T11:00:04;3.10;;;1.10;;
38805;SDS011;25635;51.146;17.162;2023-07-02T11:02:34;2.70;;;1.10;;
38805;SDS011;25635;51.146;17.162;2023-07-02T11:05:04;5.10;;;1.30;;
38805;SDS011;25635;51.146;17.162;2023-07-02T11:07:40;3.90;;;1.10;;
38805;SDS011;25635;51.146;17.162;2023-07-02T11:10:08;3.40;;;1.10;;
38805;SDS011;25635;51.146;17.162;2023-07-02T11:12:35;5.10;;;1.20;;
38805;SDS011;25635;51.146;17.162;2023-07-02T11:15:15;4.00;;;1.30;;
38805;SDS011;25635;51.146;17.162;2023-07-02T11:17:43;3.30;;;1.20;;
38805;SDS011;25635;51.146;17.162;2023-07-02T11:20:09;2.40;;;1.00;;
38805;SDS011;25635;51.146;17.162;2023-07-02T11:22:37;2.40;;;1.10;;
38805;SDS011;25635;51.146;17.162;2023-07-02T11:27:43;4.30;;;1.10;;
38805;SDS011;25635;51.146;17.162;2023-07-02T11:30:10;2.70;;;1.00;;
38805;SDS011;25635;51.146;17.162;2023-07-02T11:32:53;3.60;;;1.10;;
38805;SDS011;25635;51.146;17.162;2023-07-02T11:35:20;2.60;;;1.10;;
38805;SDS011;25635;51.146;17.162;2023-07-02T11:37:48;6.90;;;1.10;;
38805;SDS011;25635;51.146;17.162;2023-07-02T11:40:16;3.90;;;1.00;;
38805;SDS011;25635;51.146;17.162;2023-07-02T11:42:43;3.90;;;1.00;;
38805;SDS011;25635;51.146;17.162;2023-07-02T11:45:09;3.20;;;1.00;;
38805;SDS011;25635;51.146;17.162;2023-07-02T11:47:36;2.40;;;0.80;;
38805;SDS011;25635;51.146;17.162;2023-07-02T11:50:03;4.10;;;1.10;;
38805;SDS011;25635;51.146;17.162;2023-07-02T11:52:29;3.10;;;1.10;;
38805;SDS011;25635;51.146;17.162;2023-07-02T11:54:55;2.60;;;0.80;;
38805;SDS011;25635;51.146;17.162;2023-07-02T11:57:21;3.00;;;0.80;;
38805;SDS011;25635;51.146;17.162;2023-07-02T11:59:48;4.00;;;1.00;;
38805;SDS011;25635;51.146;17.162;2023-07-02T12:02:15;3.30;;;1.00;;
38805;SDS011;25635;51.146;17.162;2023-07-02T12:04:41;3.00;;;1.00;;
38805;SDS011;25635;51.146;17.162;2023-07-02T12:07:07;2.80;;;0.80;;
38805;SDS011;25635;51.146;17.162;2023-07-02T12:09:33;2.60;;;0.90;;
38805;SDS011;25635;51.146;17.162;2023-07-02T12:11:59;2.70;;;1.00;;
38805;SDS011;25635;51.146;17.162;2023-07-02T12:14:25;2.90;;;1.00;;
38805;SDS011;25635;51.146;17.162;2023-07-02T12:16:51;3.40;;;0.90;;
38805;SDS011;25635;51.146;17.162;2023-07-02T12:19:17;2.80;;;0.90;;
38805;SDS011;25635;51.146;17.162;2023-07-02T12:21:43;2.40;;;0.70;;
38805;SDS011;25635;51.146;17.162;2023-07-02T12:24:09;3.70;;;0.90;;
38805;SDS011;25635;51.146;17.162;2023-07-02T12:26:36;4.20;;;1.20;;
38805;SDS011;25635;51.146;17.162;2023-07-02T12:29:02;3.40;;;0.90;;
38805;SDS011;25635;51.146;17.162;2023-07-02T12:31:30;1.90;;;0.70;;
38805;SDS011;25635;51.146;17.162;2023-07-02T12:33:56;3.40;;;1.00;;
38805;SDS011;25635;51.146;17.162;2023-07-02T12:36:24;4.20;;;1.10;;
38805;SDS011;25635;51.146;17.162;2023-07-02T12:38:50;3.30;;;0.90;;
38805;SDS011;25635;51.146;17.162;2023-07-02T12:41:16;2.40;;;0.90;;
38805;SDS011;25635;51.146;17.162;2023-07-02T12:43:42;3.00;;;0.90;;
38805;SDS011;25635;51.146;17.162;2023-07-02T12:46:08;3.10;;;0.90;;
38805;SDS011;25635;51.146;17.162;2023-07-02T12:48:34;2.70;;;0.90;;
38805;SDS011;25635;51.146;17.162;2023-07-02T12:51:00;3.20;;;0.90;;
38805;SDS011;25635;51.146;17.162;2023-07-02T12:53:26;2.50;;;0.80;;
38805;SDS011;25635;51.146;17.162;2023-07-02T12:55:54;2.20;;;0.90;;
38805;SDS011;25635;51.146;17.162;2023-07-02T12:58:20;1.70;;;0.60;;
38805;SDS011;25635;51.146;17.162;2023-07-02T13:00:46;3.40;;;0.90;;
38805;SDS011;25635;51.146;17.162;2023-07-02T13:03:13;3.40;;;1.20;;
38805;SDS011;25635;51.146;17.162;2023-07-02T13:05:39;3.40;;;0.90;;
38805;SDS011;25635;51.146;17.162;2023-07-02T13:08:05;3.70;;;0.90;;
38805;SDS011;25635;51.146;17.162;2023-07-02T13:10:32;3.40;;;0.90;;
38805;SDS011;25635;51.146;17.162;2023-07-02T13:12:59;2.90;;;1.00;;
38805;SDS011;25635;51.146;17.162;2023-07-02T13:15:26;2.80;;;0.90;;
38805;SDS011;25635;51.146;17.162;2023-07-02T13:17:52;2.90;;;1.00;;
38805;SDS011;25635;51.146;17.162;2023-07-02T13:20:18;3.40;;;1.00;;
38805;SDS011;25635;51.146;17.162;2023-07-02T13:22:44;3.90;;;1.00;;
38805;SDS011;25635;51.146;17.162;2023-07-02T13:25:10;4.30;;;1.00;;
38805;SDS011;25635;51.146;17.162;2023-07-02T13:27:36;4.00;;;1.00;;
38805;SDS011;25635;51.146;17.162;2023-07-02T13:30:03;6.50;;;1.20;;
38805;SDS011;25635;51.146;17.162;2023-07-02T13:32:29;4.00;;;0.80;;
38805;SDS011;25635;51.146;17.162;2023-07-02T13:34:56;6.50;;;1.20;;
38805;SDS011;25635;51.146;17.162;2023-07-02T13:37:22;2.80;;;0.90;;
38805;SDS011;25635;51.146;17.162;2023-07-02T13:39:48;3.10;;;1.20;;
38805;SDS011;25635;51.146;17.162;2023-07-02T13:42:15;2.70;;;0.80;;
38805;SDS011;25635;51.146;17.162;2023-07-02T13:44:41;3.00;;;0.90;;
38805;SDS011;25635;51.146;17.162;2023-07-02T13:47:08;3.10;;;1.10;;
38805;SDS011;25635;51.146;17.162;2023-07-02T13:49:34;5.30;;;0.90;;
38805;SDS011;25635;51.146;17.162;2023-07-02T13:52:00;3.20;;;0.90;;
38805;SDS011;25635;51.146;17.162;2023-07-02T13:54:26;4.90;;;0.90;;
38805;SDS011;25635;51.146;17.162;2023-07-02T13:56:52;2.40;;;0.80;;
38805;SDS011;25635;51.146;17.162;2023-07-02T13:59:19;5.40;;;1.20;;
38805;SDS011;25635;51.146;17.162;2023-07-02T14:01:46;3.30;;;0.90;;
38805;SDS011;25635;51.146;17.162;2023-07-02T14:04:13;2.70;;;1.00;;
38805;SDS011;25635;51.146;17.162;2023-07-02T14:06:39;3.10;;;1.00;;
38805;SDS011;25635;51.146;17.162;2023-07-02T14:09:06;2.60;;;0.90;;
38805;SDS011;25635;51.146;17.162;2023-07-02T14:11:32;3.50;;;0.80;;
38805;SDS011;25635;51.146;17.162;2023-07-02T14:14:00;5.40;;;1.40;;
38805;SDS011;25635;51.146;17.162;2023-07-02T14:16:26;3.50;;;1.00;;
38805;SDS011;25635;51.146;17.162;2023-07-02T14:18:52;5.90;;;1.10;;
38805;SDS011;25635;51.146;17.162;2023-07-02T14:21:18;3.00;;;1.20;;
38805;SDS011;25635;51.146;17.162;2023-07-02T14:23:44;5.20;;;1.10;;
38805;SDS011;25635;51.146;17.162;2023-07-02T14:26:10;3.30;;;1.00;;
38805;SDS011;25635;51.146;17.162;2023-07-02T14:28:37;4.80;;;1.30;;
38805;SDS011;25635;51.146;17.162;2023-07-02T14:31:03;2.30;;;0.90;;
38805;SDS011;25635;51.146;17.162;2023-07-02T14:33:31;3.70;;;1.30;;
38805;SDS011;25635;51.146;17.162;2023-07-02T14:36:00;2.20;;;0.80;;
38805;SDS011;25635;51.146;17.162;2023-07-02T14:38:27;3.40;;;1.10;;
38805;SDS011;25635;51.146;17.162;2023-07-02T14:40:53;7.60;;;1.20;;
38805;SDS011;25635;51.146;17.162;2023-07-02T14:43:25;4.10;;;1.00;;
38805;SDS011;25635;51.146;17.162;2023-07-02T14:45:54;3.80;;;1.00;;